ESSA/ARN METAR and TAF weather

Enter ICAO airport designator
Station Type Date Time Source
ESSA METAR 2019/10/16 18:50 UTC NOAA

ESSA 161850Z 03008KT 5000 -DZ OVC004 07/07 Q1007 NOSIG


Station Type Date Time Source
ESSA Decoded METAR 2019/10/16 18:50 UTC NOAA

Stockholm / Arlanda, Sweden (ESSA) 59-39N 017-57E 61M
Oct 16, 2019 - 02:50 PM EDT / 2019.10.16 1850 UTC
Wind: from the NNE (030 degrees) at 9 MPH (8 KT):0
Visibility: 3 mile(s):0
Sky conditions: overcast
Weather: light drizzle
Temperature: 44 F (7 C)
Dew Point: 44 F (7 C)
Relative Humidity: 100%
Pressure (altimeter): 29.74 in. Hg (1007 hPa)
ob: ESSA 161850Z 03008KT 5000 -DZ OVC004 07/07 Q1007 NOSIG
cycle: 19

Station Type Date Time Source
ESSA TAF 2019/10/16 18:33 UTC NOAA

TAF ESSA 161730Z 1618/1718 05008KT 7000 BKN006
TEMPO 1618/1718 2000 DZ BR BKN003

Example: see airport list